sensor_id;sensor_type;location;lat;lon;timestamp;pressure;altitude;pressure_sealevel;temperature;humidity
48614;BME280;34408;51.426;5.444;2023-05-12T00:02:24;101515.13;;;15.02;71.70
48614;BME280;34408;51.426;5.444;2023-05-12T00:04:52;101519.72;;;15.01;71.65
48614;BME280;34408;51.426;5.444;2023-05-12T00:07:20;101508.28;;;14.99;71.63
48614;BME280;34408;51.426;5.444;2023-05-12T00:09:48;101508.75;;;14.96;71.94
48614;BME280;34408;51.426;5.444;2023-05-12T00:12:17;101517.47;;;14.98;71.79
48614;BME280;34408;51.426;5.444;2023-05-12T00:14:45;101522.06;;;14.97;71.54
48614;BME280;34408;51.426;5.444;2023-05-12T00:17:13;101515.00;;;14.96;71.70
48614;BME280;34408;51.426;5.444;2023-05-12T00:19:41;101517.69;;;14.96;71.35
48614;BME280;34408;51.426;5.444;2023-05-12T00:22:10;101515.00;;;14.96;71.25
48614;BME280;34408;51.426;5.444;2023-05-12T00:24:37;101512.28;;;14.96;71.50
48614;BME280;34408;51.426;5.444;2023-05-12T00:27:06;101509.81;;;14.95;71.52
48614;BME280;34408;51.426;5.444;2023-05-12T00:29:35;101503.81;;;14.93;71.68
48614;BME280;34408;51.426;5.444;2023-05-12T00:32:03;101511.34;;;14.91;71.86
48614;BME280;34408;51.426;5.444;2023-05-12T00:34:32;101510.75;;;14.89;71.98
48614;BME280;34408;51.426;5.444;2023-05-12T00:37:00;101504.75;;;14.87;71.66
48614;BME280;34408;51.426;5.444;2023-05-12T00:39:28;101508.50;;;14.86;71.83
48614;BME280;34408;51.426;5.444;2023-05-12T00:41:56;101515.00;;;14.85;71.43
48614;BME280;34408;51.426;5.444;2023-05-12T00:44:24;101515.00;;;14.85;71.28
48614;BME280;34408;51.426;5.444;2023-05-12T00:46:53;101505.22;;;14.84;71.50
48614;BME280;34408;51.426;5.444;2023-05-12T00:49:23;101507.94;;;14.84;71.28
48614;BME280;34408;51.426;5.444;2023-05-12T00:51:53;101506.03;;;14.84;71.09
48614;BME280;34408;51.426;5.444;2023-05-12T00:54:21;101503.34;;;14.84;70.96
48614;BME280;34408;51.426;5.444;2023-05-12T00:56:49;101510.63;;;14.84;71.09
48614;BME280;34408;51.426;5.444;2023-05-12T00:59:17;101505.47;;;14.82;70.89
48614;BME280;34408;51.426;5.444;2023-05-12T01:01:47;101500.28;;;14.81;70.79
48614;BME280;34408;51.426;5.444;2023-05-12T01:04:16;101501.34;;;14.80;70.71
48614;BME280;34408;51.426;5.444;2023-05-12T01:06:47;101499.69;;;14.79;70.55
48614;BME280;34408;51.426;5.444;2023-05-12T01:09:16;101500.75;;;14.78;70.75
48614;BME280;34408;51.426;5.444;2023-05-12T01:11:44;101500.75;;;14.78;70.81
48614;BME280;34408;51.426;5.444;2023-05-12T01:14:12;101500.16;;;14.76;70.82
48614;BME280;34408;51.426;5.444;2023-05-12T01:16:46;101499.31;;;14.75;70.75
48614;BME280;34408;51.426;5.444;2023-05-12T01:19:28;101489.56;;;14.74;70.56
48614;BME280;34408;51.426;5.444;2023-05-12T01:21:59;101498.97;;;14.72;70.55
48614;BME280;34408;51.426;5.444;2023-05-12T01:24:30;101495.44;;;14.71;70.53
48614;BME280;34408;51.426;5.444;2023-05-12T01:27:01;101491.69;;;14.72;70.26
48614;BME280;34408;51.426;5.444;2023-05-12T01:29:30;101492.72;;;14.71;70.32
48614;BME280;34408;51.426;5.444;2023-05-12T01:31:59;101489.22;;;14.71;70.40
48614;BME280;34408;51.426;5.444;2023-05-12T01:34:27;101486.72;;;14.69;70.41
48614;BME280;34408;51.426;5.444;2023-05-12T01:36:55;101478.13;;;14.60;70.62
48614;BME280;34408;51.426;5.444;2023-05-12T01:39:22;101480.50;;;14.69;70.38
48614;BME280;34408;51.426;5.444;2023-05-12T01:41:50;101480.59;;;14.62;70.17
48614;BME280;34408;51.426;5.444;2023-05-12T01:44:19;101483.44;;;14.67;70.31
48614;BME280;34408;51.426;5.444;2023-05-12T01:46:47;101485.31;;;14.67;70.54
48614;BME280;34408;51.426;5.444;2023-05-12T01:49:15;101480.97;;;14.65;70.28
48614;BME280;34408;51.426;5.444;2023-05-12T01:51:43;101480.38;;;14.63;70.17
48614;BME280;34408;51.426;5.444;2023-05-12T01:54:11;101475.19;;;14.62;70.31
48614;BME280;34408;51.426;5.444;2023-05-12T01:56:38;101473.31;;;14.62;70.56
48614;BME280;34408;51.426;5.444;2023-05-12T01:59:07;101477.06;;;14.61;70.45
48614;BME280;34408;51.426;5.444;2023-05-12T02:01:36;101476.25;;;14.61;70.49
48614;BME280;34408;51.426;5.444;2023-05-12T02:04:04;101470.47;;;14.57;70.46
48614;BME280;34408;51.426;5.444;2023-05-12T02:06:34;101471.91;;;14.60;70.56
48614;BME280;34408;51.426;5.444;2023-05-12T02:09:03;101467.53;;;14.59;70.52
48614;BME280;34408;51.426;5.444;2023-05-12T02:11:30;101468.00;;;14.56;70.49
48614;BME280;34408;51.426;5.444;2023-05-12T02:13:58;101464.94;;;14.52;70.56
48614;BME280;34408;51.426;5.444;2023-05-12T02:16:26;101458.13;;;14.50;70.61
48614;BME280;34408;51.426;5.444;2023-05-12T02:18:55;101460.47;;;14.46;70.71
48614;BME280;34408;51.426;5.444;2023-05-12T02:21:23;101456.94;;;14.46;70.88
48614;BME280;34408;51.426;5.444;2023-05-12T02:23:51;101450.94;;;14.44;70.84
48614;BME280;34408;51.426;5.444;2023-05-12T02:26:19;101452.00;;;14.43;70.72
48614;BME280;34408;51.426;5.444;2023-05-12T02:28:47;101453.06;;;14.42;70.98
48614;BME280;34408;51.426;5.444;2023-05-12T02:31:15;101448.66;;;14.41;70.44
48614;BME280;34408;51.426;5.444;2023-05-12T02:33:43;101449.50;;;14.41;70.88
48614;BME280;34408;51.426;5.444;2023-05-12T02:36:12;101437.03;;;14.40;70.77
48614;BME280;34408;51.426;5.444;2023-05-12T02:38:40;101441.38;;;14.41;70.57
48614;BME280;34408;51.426;5.444;2023-05-12T02:41:07;101443.25;;;14.41;70.69
48614;BME280;34408;51.426;5.444;2023-05-12T02:43:35;101439.13;;;14.38;70.76
48614;BME280;34408;51.426;5.444;2023-05-12T02:46:03;101443.13;;;14.36;70.79
48614;BME280;34408;51.426;5.444;2023-05-12T02:48:31;101442.31;;;14.35;70.92
48614;BME280;34408;51.426;5.444;2023-05-12T02:50:59;101439.59;;;14.35;70.54
48614;BME280;34408;51.426;5.444;2023-05-12T02:53:28;101433.38;;;14.34;70.81
48614;BME280;34408;51.426;5.444;2023-05-12T02:55:56;101432.53;;;14.34;70.75
48614;BME280;34408;51.426;5.444;2023-05-12T02:58:24;101430.06;;;14.32;71.00
48614;BME280;34408;51.426;5.444;2023-05-12T03:00:52;101429.25;;;14.32;70.70
48614;BME280;34408;51.426;5.444;2023-05-12T03:03:35;101426.78;;;14.30;70.91
48614;BME280;34408;51.426;5.444;2023-05-12T03:06:04;101423.84;;;14.32;70.87
48614;BME280;34408;51.426;5.444;2023-05-12T03:08:34;101421.38;;;14.30;70.80
48614;BME280;34408;51.426;5.444;2023-05-12T03:11:02;101418.66;;;14.30;70.95
48614;BME280;34408;51.426;5.444;2023-05-12T03:13:29;101420.78;;;14.28;70.99
48614;BME280;34408;51.426;5.444;2023-05-12T03:15:57;101418.06;;;14.28;70.99
48614;BME280;34408;51.426;5.444;2023-05-12T03:18:27;101417.25;;;14.28;70.73
48614;BME280;34408;51.426;5.444;2023-05-12T03:20:55;101416.44;;;14.27;70.79
48614;BME280;34408;51.426;5.444;2023-05-12T03:23:23;101413.72;;;14.27;71.15
48614;BME280;34408;51.426;5.444;2023-05-12T03:25:52;101416.66;;;14.26;71.02
48614;BME280;34408;51.426;5.444;2023-05-12T03:28:20;101400.44;;;14.26;71.07
48614;BME280;34408;51.426;5.444;2023-05-12T03:30:50;101399.03;;;14.23;71.10
48614;BME280;34408;51.426;5.444;2023-05-12T03:33:18;101393.84;;;14.22;70.83
48614;BME280;34408;51.426;5.444;2023-05-12T03:35:45;101387.63;;;14.21;71.05
48614;BME280;34408;51.426;5.444;2023-05-12T03:38:13;101398.44;;;14.21;70.98
48614;BME280;34408;51.426;5.444;2023-05-12T03:40:41;101386.78;;;14.21;70.75
48614;BME280;34408;51.426;5.444;2023-05-12T03:43:10;101387.03;;;14.19;70.92
48614;BME280;34408;51.426;5.444;2023-05-12T03:45:38;101383.28;;;14.20;71.24
48614;BME280;34408;51.426;5.444;2023-05-12T03:48:06;101388.69;;;14.20;70.92
48614;BME280;34408;51.426;5.444;2023-05-12T03:50:34;101380.56;;;14.20;70.99
48614;BME280;34408;51.426;5.444;2023-05-12T03:53:02;101378.91;;;14.19;71.13
48614;BME280;34408;51.426;5.444;2023-05-12T03:55:29;101387.03;;;14.19;71.30
48614;BME280;34408;51.426;5.444;2023-05-12T03:57:57;101393.25;;;14.20;71.05
48614;BME280;34408;51.426;5.444;2023-05-12T04:00:27;101377.28;;;14.18;70.93
48614;BME280;34408;51.426;5.444;2023-05-12T04:02:54;101383.13;;;14.15;71.24
48614;BME280;34408;51.426;5.444;2023-05-12T04:05:22;101379.63;;;14.15;71.25
48614;BME280;34408;51.426;5.444;2023-05-12T04:07:50;101376.91;;;14.15;70.87
48614;BME280;34408;51.426;5.444;2023-05-12T04:10:18;101376.09;;;14.14;71.05
48614;BME280;34408;51.426;5.444;2023-05-12T04:12:47;101372.56;;;14.14;71.46
48614;BME280;34408;51.426;5.444;2023-05-12T04:15:15;101373.63;;;14.13;71.56
48614;BME280;34408;51.426;5.444;2023-05-12T04:17:44;101373.84;;;14.11;71.58
48614;BME280;34408;51.426;5.444;2023-05-12T04:20:12;101373.84;;;14.11;71.40
48614;BME280;34408;51.426;5.444;2023-05-12T04:22:40;101370.31;;;14.11;71.50
48614;BME280;34408;51.426;5.444;2023-05-12T04:25:08;101366.78;;;14.10;71.58
48614;BME280;34408;51.426;5.444;2023-05-12T04:27:36;101372.19;;;14.10;71.31
48614;BME280;34408;51.426;5.444;2023-05-12T04:30:05;101372.44;;;14.09;71.32
48614;BME280;34408;51.426;5.444;2023-05-12T04:32:33;101370.56;;;14.09;71.62
48614;BME280;34408;51.426;5.444;2023-05-12T04:35:03;101364.56;;;14.07;71.79
48614;BME280;34408;51.426;5.444;2023-05-12T04:37:31;101376.44;;;14.06;71.79
48614;BME280;34408;51.426;5.444;2023-05-12T04:40:00;101375.59;;;14.06;71.58
48614;BME280;34408;51.426;5.444;2023-05-12T04:42:27;101372.91;;;14.06;71.77
48614;BME280;34408;51.426;5.444;2023-05-12T04:44:55;101376.44;;;14.06;71.50
48614;BME280;34408;51.426;5.444;2023-05-12T04:47:23;101372.91;;;14.06;71.64
48614;BME280;34408;51.426;5.444;2023-05-12T04:49:51;101374.78;;;14.05;71.57
48614;BME280;34408;51.426;5.444;2023-05-12T04:52:20;101377.47;;;14.05;71.87
48614;BME280;34408;51.426;5.444;2023-05-12T04:54:50;101379.34;;;14.05;71.79
48614;BME280;34408;51.426;5.444;2023-05-12T04:57:21;101376.66;;;14.05;71.71
48614;BME280;34408;51.426;5.444;2023-05-12T04:59:49;101378.53;;;14.04;71.96
48614;BME280;34408;51.426;5.444;2023-05-12T05:02:17;101379.34;;;14.05;72.06
48614;BME280;34408;51.426;5.444;2023-05-12T05:04:45;101385.81;;;14.04;72.01
48614;BME280;34408;51.426;5.444;2023-05-12T05:07:13;101382.28;;;14.03;71.79
48614;BME280;34408;51.426;5.444;2023-05-12T05:09:42;101389.34;;;14.04;71.99
48614;BME280;34408;51.426;5.444;2023-05-12T05:12:09;101387.69;;;14.03;71.84
48614;BME280;34408;51.426;5.444;2023-05-12T05:14:37;101392.28;;;14.02;71.91
48614;BME280;34408;51.426;5.444;2023-05-12T05:17:05;101393.34;;;14.01;72.13
48614;BME280;34408;51.426;5.444;2023-05-12T05:19:33;101396.03;;;14.01;72.33
48614;BME280;34408;51.426;5.444;2023-05-12T05:22:20;101394.38;;;14.00;72.23
48614;BME280;34408;51.426;5.444;2023-05-12T05:24:49;101404.38;;;14.00;72.31
48614;BME280;34408;51.426;5.444;2023-05-12T05:27:17;101401.91;;;13.98;72.47
48614;BME280;34408;51.426;5.444;2023-05-12T05:29:45;101401.09;;;13.98;72.58
48614;BME280;34408;51.426;5.444;2023-05-12T05:32:13;101400.25;;;13.97;72.78
48614;BME280;34408;51.426;5.444;2023-05-12T05:34:41;101399.44;;;13.97;72.55
48614;BME280;34408;51.426;5.444;2023-05-12T05:37:09;101403.78;;;13.98;72.80
48614;BME280;34408;51.426;5.444;2023-05-12T05:39:37;101396.72;;;13.97;72.88
48614;BME280;34408;51.426;5.444;2023-05-12T05:42:06;101405.44;;;13.99;72.45
48614;BME280;34408;51.426;5.444;2023-05-12T05:44:34;101418.13;;;13.98;72.63
48614;BME280;34408;51.426;5.444;2023-05-12T05:47:02;101414.34;;;13.99;72.37
48614;BME280;34408;51.426;5.444;2023-05-12T05:49:30;101413.31;;;14.00;73.02
48614;BME280;34408;51.426;5.444;2023-05-12T05:51:57;101424.94;;;14.01;72.81
48614;BME280;34408;51.426;5.444;2023-05-12T05:54:25;101423.28;;;14.00;73.00
48614;BME280;34408;51.426;5.444;2023-05-12T05:56:53;101423.28;;;14.00;72.93
48614;BME280;34408;51.426;5.444;2023-05-12T05:59:22;101429.53;;;14.00;72.90
48614;BME280;34408;51.426;5.444;2023-05-12T06:01:50;101436.81;;;14.00;73.36
48614;BME280;34408;51.426;5.444;2023-05-12T06:04:18;101439.50;;;14.00;73.04
48614;BME280;34408;51.426;5.444;2023-05-12T06:06:46;101441.38;;;13.99;73.33
48614;BME280;34408;51.426;5.444;2023-05-12T06:09:14;101437.84;;;13.99;73.59
48614;BME280;34408;51.426;5.444;2023-05-12T06:11:42;101444.09;;;13.99;73.19
48614;BME280;34408;51.426;5.444;2023-05-12T06:14:10;101446.56;;;14.01;73.56
48614;BME280;34408;51.426;5.444;2023-05-12T06:16:39;101448.06;;;13.97;73.76
48614;BME280;34408;51.426;5.444;2023-05-12T06:19:07;101455.13;;;13.98;73.66
48614;BME280;34408;51.426;5.444;2023-05-12T06:21:36;101464.88;;;13.99;73.39
48614;BME280;34408;51.426;5.444;2023-05-12T06:24:04;101460.31;;;13.99;73.96
48614;BME280;34408;51.426;5.444;2023-05-12T06:26:32;101468.41;;;13.99;73.69
48614;BME280;34408;51.426;5.444;2023-05-12T06:29:00;101474.66;;;14.00;73.98
48614;BME280;34408;51.426;5.444;2023-05-12T06:31:28;101471.72;;;14.01;73.75
48614;BME280;34408;51.426;5.444;2023-05-12T06:33:57;101458.28;;;13.95;73.55
48614;BME280;34408;51.426;5.444;2023-05-12T06:36:26;101476.88;;;14.03;73.85
48614;BME280;34408;51.426;5.444;2023-05-12T06:38:54;101485.00;;;14.03;73.85
48614;BME280;34408;51.426;5.444;2023-05-12T06:41:22;101473.13;;;14.04;73.87
48614;BME280;34408;51.426;5.444;2023-05-12T06:43:50;101469.91;;;13.95;73.82
48614;BME280;34408;51.426;5.444;2023-05-12T06:46:18;101475.00;;;14.04;74.18
48614;BME280;34408;51.426;5.444;2023-05-12T06:48:46;101485.81;;;14.04;74.13
48614;BME280;34408;51.426;5.444;2023-05-12T06:51:15;101489.34;;;14.04;74.45
48614;BME280;34408;51.426;5.444;2023-05-12T06:53:44;101491.81;;;14.06;74.30
48614;BME280;34408;51.426;5.444;2023-05-12T06:56:11;101484.53;;;14.06;74.69
48614;BME280;34408;51.426;5.444;2023-05-12T06:58:42;101494.28;;;14.07;74.12
48614;BME280;34408;51.426;5.444;2023-05-12T07:01:10;101508.88;;;14.06;73.92
48614;BME280;34408;51.426;5.444;2023-05-12T07:03:38;101497.81;;;14.08;74.40
48614;BME280;34408;51.426;5.444;2023-05-12T07:06:06;101500.53;;;14.08;74.14
48614;BME280;34408;51.426;5.444;2023-05-12T07:08:35;101499.69;;;14.07;74.16
48614;BME280;34408;51.426;5.444;2023-05-12T07:11:03;101511.09;;;14.09;74.24
48614;BME280;34408;51.426;5.444;2023-05-12T07:13:31;101511.94;;;14.10;74.39
48614;BME280;34408;51.426;5.444;2023-05-12T07:15:59;101514.63;;;14.10;74.25
48614;BME280;34408;51.426;5.444;2023-05-12T07:18:27;101510.06;;;14.10;74.40
48614;BME280;34408;51.426;5.444;2023-05-12T07:20:54;101511.72;;;14.11;74.14
48614;BME280;34408;51.426;5.444;2023-05-12T07:23:22;101513.34;;;14.12;74.07
48614;BME280;34408;51.426;5.444;2023-05-12T07:25:52;101516.88;;;14.13;74.47
48614;BME280;34408;51.426;5.444;2023-05-12T07:28:19;101524.75;;;14.14;73.84
48614;BME280;34408;51.426;5.444;2023-05-12T07:30:47;101526.41;;;14.15;73.94
48614;BME280;34408;51.426;5.444;2023-05-12T07:33:15;101525.34;;;14.16;73.30
48614;BME280;34408;51.426;5.444;2023-05-12T07:35:44;101525.13;;;14.18;73.49
48614;BME280;34408;51.426;5.444;2023-05-12T07:38:12;101527.84;;;14.18;72.89
48614;BME280;34408;51.426;5.444;2023-05-12T07:40:40;101522.19;;;14.19;72.98
48614;BME280;34408;51.426;5.444;2023-05-12T07:43:10;101527.59;;;14.19;73.51
48614;BME280;34408;51.426;5.444;2023-05-12T07:45:37;101526.78;;;14.19;73.13
48614;BME280;34408;51.426;5.444;2023-05-12T07:48:05;101529.25;;;14.20;73.17
48614;BME280;34408;51.426;5.444;2023-05-12T07:50:33;101530.09;;;14.21;73.10
48614;BME280;34408;51.426;5.444;2023-05-12T07:53:01;101533.38;;;14.23;73.15
48614;BME280;34408;51.426;5.444;2023-05-12T07:55:29;101536.69;;;14.25;73.39
48614;BME280;34408;51.426;5.444;2023-05-12T07:57:58;101538.31;;;14.26;73.33
48614;BME280;34408;51.426;5.444;2023-05-12T08:00:28;101530.00;;;14.27;73.02
48614;BME280;34408;51.426;5.444;2023-05-12T08:02:56;101533.50;;;14.28;73.30
48614;BME280;34408;51.426;5.444;2023-05-12T08:05:24;101538.69;;;14.29;73.10
48614;BME280;34408;51.426;5.444;2023-05-12T08:07:52;101543.28;;;14.29;73.22
48614;BME280;34408;51.426;5.444;2023-05-12T08:10:20;101542.22;;;14.30;73.09
48614;BME280;34408;51.426;5.444;2023-05-12T08:12:52;101544.69;;;14.31;73.25
48614;BME280;34408;51.426;5.444;2023-05-12T08:15:20;101550.69;;;14.33;72.67
48614;BME280;34408;51.426;5.444;2023-05-12T08:17:49;101547.19;;;14.33;72.71
48614;BME280;34408;51.426;5.444;2023-05-12T08:20:17;101550.69;;;14.33;72.84
48614;BME280;34408;51.426;5.444;2023-05-12T08:22:45;101549.66;;;14.34;72.90
48614;BME280;34408;51.426;5.444;2023-05-12T08:25:13;101555.88;;;14.35;72.86
48614;BME280;34408;51.426;5.444;2023-05-12T08:27:41;101556.00;;;14.40;72.57
48614;BME280;34408;51.426;5.444;2023-05-12T08:30:10;101560.59;;;14.40;72.66
48614;BME280;34408;51.426;5.444;2023-05-12T08:32:38;101552.34;;;14.34;72.66
48614;BME280;34408;51.426;5.444;2023-05-12T08:35:07;101549.41;;;14.36;72.81
48614;BME280;34408;51.426;5.444;2023-05-12T08:37:35;101564.97;;;14.41;72.74
48614;BME280;34408;51.426;5.444;2023-05-12T08:40:08;101561.44;;;14.40;72.64
48614;BME280;34408;51.426;5.444;2023-05-12T08:42:42;101554.97;;;14.41;72.91
48614;BME280;34408;51.426;5.444;2023-05-12T08:45:10;101566.41;;;14.43;72.56
48614;BME280;34408;51.426;5.444;2023-05-12T08:47:39;101566.31;;;14.50;72.50
48614;BME280;34408;51.426;5.444;2023-05-12T08:50:10;101575.47;;;14.49;72.67
48614;BME280;34408;51.426;5.444;2023-05-12T08:52:40;101578.19;;;14.49;72.76
48614;BME280;34408;51.426;5.444;2023-05-12T08:55:09;101574.66;;;14.48;72.74
48614;BME280;34408;51.426;5.444;2023-05-12T08:57:37;101571.25;;;14.53;72.60
48614;BME280;34408;51.426;5.444;2023-05-12T09:00:06;101576.66;;;14.53;72.59
48614;BME280;34408;51.426;5.444;2023-05-12T09:02:36;101585.38;;;14.55;72.34
48614;BME280;34408;51.426;5.444;2023-05-12T09:05:21;101581.28;;;14.64;71.94
48614;BME280;34408;51.426;5.444;2023-05-12T09:07:50;101584.69;;;14.59;72.17
48614;BME280;34408;51.426;5.444;2023-05-12T09:10:20;101585.06;;;14.63;72.10
48614;BME280;34408;51.426;5.444;2023-05-12T09:13:02;101589.66;;;14.62;72.04
48614;BME280;34408;51.426;5.444;2023-05-12T09:15:34;101586.13;;;14.62;72.07
48614;BME280;34408;51.426;5.444;2023-05-12T09:18:04;101588.00;;;14.61;72.25
48614;BME280;34408;51.426;5.444;2023-05-12T09:20:33;101586.47;;;14.65;71.84
48614;BME280;34408;51.426;5.444;2023-05-12T09:23:12;101594.38;;;14.67;71.74
48614;BME280;34408;51.426;5.444;2023-05-12T09:25:40;101592.72;;;14.66;71.65
48614;BME280;34408;51.426;5.444;2023-05-12T09:28:10;101596.47;;;14.65;71.52
48614;BME280;34408;51.426;5.444;2023-05-12T09:30:38;101590.59;;;14.68;71.57
48614;BME280;34408;51.426;5.444;2023-05-12T09:33:09;101594.38;;;14.67;71.55
48614;BME280;34408;51.426;5.444;2023-05-12T09:35:42;101600.59;;;14.68;71.54
48614;BME280;34408;51.426;5.444;2023-05-12T09:38:12;101600.97;;;14.71;71.52
48614;BME280;34408;51.426;5.444;2023-05-12T09:40:40;101599.22;;;14.77;70.79
48614;BME280;34408;51.426;5.444;2023-05-12T09:43:09;101604.03;;;14.75;70.90
48614;BME280;34408;51.426;5.444;2023-05-12T09:45:41;101602.16;;;14.75;71.11
48614;BME280;34408;51.426;5.444;2023-05-12T09:48:10;101597.56;;;14.76;71.02
48614;BME280;34408;51.426;5.444;2023-05-12T09:50:45;101606.75;;;14.75;70.59
48614;BME280;34408;51.426;5.444;2023-05-12T09:53:14;101609.44;;;14.75;70.99
48614;BME280;34408;51.426;5.444;2023-05-12T09:55:45;101605.22;;;14.79;70.62
48614;BME280;34408;51.426;5.444;2023-05-12T09:58:15;101605.00;;;14.80;70.97
48614;BME280;34408;51.426;5.444;2023-05-12T10:00:44;101603.69;;;14.83;70.94
48614;BME280;34408;51.426;5.444;2023-05-12T10:03:16;101608.06;;;14.84;70.83
48614;BME280;34408;51.426;5.444;2023-05-12T10:05:52;101607.81;;;14.85;70.84
48614;BME280;34408;51.426;5.444;2023-05-12T10:08:25;101607.59;;;14.87;71.00
48614;BME280;34408;51.426;5.444;2023-05-12T10:10:55;101609.47;;;14.86;70.81
48614;BME280;34408;51.426;5.444;2023-05-12T10:13:23;101605.72;;;14.87;70.97
48614;BME280;34408;51.426;5.444;2023-05-12T10:15:54;101614.66;;;14.88;70.90
48614;BME280;34408;51.426;5.444;2023-05-12T10:18:22;101609.59;;;14.91;70.67
48614;BME280;34408;51.426;5.444;2023-05-12T10:20:52;101605.16;;;14.97;70.97
48614;BME280;34408;51.426;5.444;2023-05-12T10:23:21;101601.72;;;14.90;70.76
48614;BME280;34408;51.426;5.444;2023-05-12T10:25:50;101618.69;;;14.97;70.60
48614;BME280;34408;51.426;5.444;2023-05-12T10:28:19;101611.38;;;14.97;70.49
48614;BME280;34408;51.426;5.444;2023-05-12T10:30:48;101611.38;;;14.97;70.23
48614;BME280;34408;51.426;5.444;2023-05-12T10:33:17;101608.44;;;14.99;70.15
48614;BME280;34408;51.426;5.444;2023-05-12T10:35:45;101618.22;;;15.00;70.13
48614;BME280;34408;51.426;5.444;2023-05-12T10:38:16;101604.31;;;14.96;70.20
48614;BME280;34408;51.426;5.444;2023-05-12T10:40:52;101608.81;;;15.03;69.95
48614;BME280;34408;51.426;5.444;2023-05-12T10:43:21;101589.97;;;14.96;70.21
48614;BME280;34408;51.426;5.444;2023-05-12T10:46:09;101608.94;;;15.08;70.46
48614;BME280;34408;51.426;5.444;2023-05-12T10:48:48;101614.72;;;15.11;70.76
48614;BME280;34408;51.426;5.444;2023-05-12T10:51:18;101619.66;;;15.14;70.89
48614;BME280;34408;51.426;5.444;2023-05-12T10:53:52;101611.06;;;15.17;70.84
48614;BME280;34408;51.426;5.444;2023-05-12T10:56:21;101603.31;;;15.21;71.35
48614;BME280;34408;51.426;5.444;2023-05-12T10:59:12;101611.19;;;15.22;70.77
48614;BME280;34408;51.426;5.444;2023-05-12T11:02:00;101621.44;;;15.32;71.19
48614;BME280;34408;51.426;5.444;2023-05-12T11:04:38;101611.66;;;15.31;70.81
48614;BME280;34408;51.426;5.444;2023-05-12T11:07:09;101619.31;;;15.34;71.03
48614;BME280;34408;51.426;5.444;2023-05-12T11:09:42;101617.56;;;15.40;71.38
48614;BME280;34408;51.426;5.444;2023-05-12T11:12:24;101625.22;;;15.43;70.97
48614;BME280;34408;51.426;5.444;2023-05-12T11:14:53;101631.94;;;15.40;70.44
48614;BME280;34408;51.426;5.444;2023-05-12T11:17:20;101630.41;;;15.44;70.72
48614;BME280;34408;51.426;5.444;2023-05-12T11:19:49;101635.34;;;15.47;70.77
48614;BME280;34408;51.426;5.444;2023-05-12T11:22:19;101641.84;;;15.46;70.75
48614;BME280;34408;51.426;5.444;2023-05-12T11:24:49;101643.25;;;15.49;70.23
48614;BME280;34408;51.426;5.444;2023-05-12T11:27:19;101623.09;;;15.45;70.72
48614;BME280;34408;51.426;5.444;2023-05-12T11:29:56;101638.41;;;15.51;70.33
48614;BME280;34408;51.426;5.444;2023-05-12T11:32:24;101649.38;;;15.56;70.73
48614;BME280;34408;51.426;5.444;2023-05-12T11:34:52;101646.66;;;15.56;70.82
48614;BME280;34408;51.426;5.444;2023-05-12T11:37:21;101640.41;;;15.55;69.94
48614;BME280;34408;51.426;5.444;2023-05-12T11:39:50;101645.25;;;15.65;70.55
48614;BME280;34408;51.426;5.444;2023-05-12T11:42:19;101642.31;;;15.67;70.40
48614;BME280;34408;51.426;5.444;2023-05-12T11:44:51;101639.34;;;15.68;70.52
48614;BME280;34408;51.426;5.444;2023-05-12T11:47:21;101647.72;;;15.67;70.11
48614;BME280;34408;51.426;5.444;2023-05-12T11:49:49;101634.75;;;15.69;69.60
48614;BME280;34408;51.426;5.444;2023-05-12T11:52:19;101647.03;;;15.71;70.19
48614;BME280;34408;51.426;5.444;2023-05-12T11:54:48;101657.84;;;15.71;69.63
48614;BME280;34408;51.426;5.444;2023-05-12T11:57:25;101655.16;;;15.71;69.43
48614;BME280;34408;51.426;5.444;2023-05-12T11:59:57;101653.25;;;15.72;68.68
48614;BME280;34408;51.426;5.444;2023-05-12T12:02:26;101661.16;;;15.73;69.00
48614;BME280;34408;51.426;5.444;2023-05-12T12:04:54;101653.16;;;15.78;69.56
48614;BME280;34408;51.426;5.444;2023-05-12T12:07:29;101671.66;;;15.81;68.55
48614;BME280;34408;51.426;5.444;2023-05-12T12:09:58;101669.75;;;15.82;68.48
48614;BME280;34408;51.426;5.444;2023-05-12T12:12:28;101660.09;;;15.86;69.42
48614;BME280;34408;51.426;5.444;2023-05-12T12:14:56;101677.41;;;15.85;69.60
48614;BME280;34408;51.426;5.444;2023-05-12T12:17:25;101676.13;;;15.87;69.51
48614;BME280;34408;51.426;5.444;2023-05-12T12:19:56;101681.91;;;15.91;69.75
48614;BME280;34408;51.426;5.444;2023-05-12T12:22:24;101684.59;;;15.91;69.82
48614;BME280;34408;51.426;5.444;2023-05-12T12:24:52;101681.91;;;15.91;68.79
48614;BME280;34408;51.426;5.444;2023-05-12T12:27:20;101683.31;;;15.93;69.39
48614;BME280;34408;51.426;5.444;2023-05-12T12:29:49;101688.81;;;16.10;64.68
48614;BME280;34408;51.426;5.444;2023-05-12T12:32:17;101691.19;;;16.07;65.75
48614;BME280;34408;51.426;5.444;2023-05-12T12:34:45;101689.53;;;16.06;66.63
48614;BME280;34408;51.426;5.444;2023-05-12T12:37:14;101693.31;;;16.05;67.57
48614;BME280;34408;51.426;5.444;2023-05-12T12:39:42;101698.50;;;16.06;68.27
48614;BME280;34408;51.426;5.444;2023-05-12T12:42:10;101698.50;;;16.06;68.74
48614;BME280;34408;51.426;5.444;2023-05-12T12:44:38;101698.28;;;16.08;68.26
48614;BME280;34408;51.426;5.444;2023-05-12T12:47:08;101691.78;;;16.09;68.59
48614;BME280;34408;51.426;5.444;2023-05-12T12:49:36;101696.97;;;16.10;68.41
48614;BME280;34408;51.426;5.444;2023-05-12T12:52:04;101699.69;;;16.10;68.17
48614;BME280;34408;51.426;5.444;2023-05-12T12:54:33;101698.72;;;16.16;69.00
48614;BME280;34408;51.426;5.444;2023-05-12T12:57:01;101698.25;;;16.19;68.48
48614;BME280;34408;51.426;5.444;2023-05-12T12:59:29;101699.31;;;16.18;69.02
48614;BME280;34408;51.426;5.444;2023-05-12T13:01:57;101686.47;;;16.14;68.84